createdAt,value
2023-11-06T00:01:18.966Z,9.90
2023-11-06T00:03:46.130Z,9.91
2023-11-06T00:06:13.535Z,9.40
2023-11-06T00:08:40.894Z,9.42
2023-11-06T00:11:08.349Z,9.62
2023-11-06T00:13:35.485Z,9.48
2023-11-06T00:16:05.836Z,9.23
2023-11-06T00:18:37.121Z,9.58
2023-11-06T00:21:06.583Z,9.61
2023-11-06T00:23:33.638Z,9.83
2023-11-06T00:26:00.706Z,8.99
2023-11-06T00:28:27.758Z,9.10
2023-11-06T00:30:54.932Z,9.42
2023-11-06T00:33:22.038Z,9.40
2023-11-06T00:35:49.103Z,8.90
2023-11-06T00:38:16.246Z,9.84
2023-11-06T00:40:43.981Z,9.34
2023-11-06T00:43:11.100Z,9.85
2023-11-06T00:45:38.352Z,9.86
2023-11-06T00:48:06.018Z,8.81
2023-11-06T00:50:33.120Z,9.89
2023-11-06T00:53:00.296Z,9.35
2023-11-06T00:55:30.169Z,9.71
2023-11-06T00:57:58.071Z,9.47
2023-11-06T01:00:25.181Z,9.96
2023-11-06T01:02:52.360Z,9.79
2023-11-06T01:05:19.545Z,10.00
2023-11-06T01:07:47.201Z,9.63
2023-11-06T01:10:15.856Z,9.86
2023-11-06T01:12:43.093Z,8.83
2023-11-06T01:15:10.488Z,9.68
2023-11-06T01:17:37.585Z,9.39
2023-11-06T01:20:05.553Z,9.16
2023-11-06T01:22:41.226Z,10.05
2023-11-06T01:25:09.746Z,10.07
2023-11-06T01:27:37.813Z,9.70
2023-11-06T01:30:05.507Z,9.40
2023-11-06T01:32:32.702Z,9.82
2023-11-06T01:34:59.806Z,9.77
2023-11-06T01:37:30.713Z,10.01
2023-11-06T01:39:57.838Z,9.76
2023-11-06T01:42:24.903Z,9.98
2023-11-06T01:44:52.141Z,9.57
2023-11-06T01:47:19.298Z,9.95
2023-11-06T01:49:48.430Z,9.78
2023-11-06T01:52:19.810Z,9.91
2023-11-06T01:54:47.273Z,9.09
2023-11-06T01:57:14.874Z,9.90
2023-11-06T01:59:41.987Z,9.33
2023-11-06T02:04:49.043Z,9.89
2023-11-06T02:07:19.408Z,9.21
2023-11-06T02:09:47.013Z,9.86
2023-11-06T02:12:14.165Z,9.66
2023-11-06T02:14:54.369Z,9.35
2023-11-06T02:17:22.307Z,9.08
2023-11-06T02:19:50.366Z,9.62
2023-11-06T02:22:20.060Z,9.73
2023-11-06T02:24:49.197Z,9.35
2023-11-06T02:27:17.265Z,9.60
2023-11-06T02:29:44.812Z,9.69
2023-11-06T02:32:12.183Z,9.64
2023-11-06T02:34:40.675Z,9.16
2023-11-06T02:37:10.160Z,8.94
2023-11-06T02:39:38.421Z,9.08
2023-11-06T02:42:06.433Z,9.31
2023-11-06T02:44:33.548Z,9.65
2023-11-06T02:47:00.650Z,9.92
2023-11-06T02:49:27.862Z,9.07
2023-11-06T02:51:55.254Z,9.81
2023-11-06T02:54:25.533Z,9.70
2023-11-06T02:56:52.978Z,9.17
2023-11-06T02:59:20.676Z,9.80
2023-11-06T03:01:47.786Z,9.86
2023-11-06T03:04:14.903Z,9.63
2023-11-06T03:06:42.278Z,9.25
2023-11-06T03:09:15.979Z,9.39
2023-11-06T03:11:43.368Z,9.94
2023-11-06T03:14:11.646Z,9.58
2023-11-06T03:16:39.948Z,9.35
2023-11-06T03:19:07.043Z,9.97
2023-11-06T03:21:34.129Z,9.65
2023-11-06T03:24:01.205Z,9.77
2023-11-06T03:26:28.328Z,9.99
2023-11-06T03:28:55.473Z,9.98
2023-11-06T03:31:22.525Z,9.55
2023-11-06T03:33:49.678Z,10.00
2023-11-06T03:36:16.736Z,9.76
2023-11-06T03:38:43.862Z,9.58
2023-11-06T03:41:11.042Z,9.21
2023-11-06T03:43:38.166Z,10.00
2023-11-06T03:46:05.285Z,9.98
2023-11-06T03:48:32.499Z,9.47
2023-11-06T03:50:59.721Z,9.96
2023-11-06T03:53:26.793Z,8.97
2023-11-06T03:55:54.430Z,8.64
2023-11-06T03:58:21.535Z,9.29
2023-11-06T04:00:48.622Z,8.55
2023-11-06T04:03:15.685Z,9.13
2023-11-06T04:05:43.593Z,9.49
2023-11-06T04:08:11.192Z,9.14
2023-11-06T04:10:40.086Z,8.95
2023-11-06T04:13:07.430Z,8.89
2023-11-06T04:15:34.759Z,9.01
2023-11-06T04:18:02.053Z,9.79
2023-11-06T04:20:29.152Z,9.39
2023-11-06T04:22:56.883Z,9.11
2023-11-06T04:25:25.153Z,9.39
2023-11-06T04:27:52.254Z,8.96
2023-11-06T04:30:19.351Z,9.76
2023-11-06T04:32:47.348Z,9.75
2023-11-06T04:35:14.647Z,9.31
2023-11-06T04:37:44.122Z,9.78
2023-11-06T04:40:12.745Z,9.73
2023-11-06T04:42:42.068Z,9.03
2023-11-06T04:45:09.800Z,9.79
2023-11-06T04:47:37.048Z,9.20
2023-11-06T04:50:05.063Z,9.01
2023-11-06T04:52:32.730Z,9.31
2023-11-06T04:55:00.162Z,9.13
2023-11-06T04:57:27.255Z,9.56
2023-11-06T04:59:54.377Z,9.18
2023-11-06T05:02:21.420Z,8.31
2023-11-06T05:04:48.632Z,9.79
2023-11-06T05:07:16.075Z,9.20
2023-11-06T05:09:43.950Z,9.42
2023-11-06T05:12:11.815Z,9.43
2023-11-06T05:14:39.023Z,7.93
2023-11-06T05:17:06.634Z,9.79
2023-11-06T05:19:38.795Z,9.24
2023-11-06T05:22:06.844Z,9.80
2023-11-06T05:24:35.039Z,9.78
2023-11-06T05:27:02.135Z,9.78
2023-11-06T05:29:29.283Z,9.40
2023-11-06T05:31:56.396Z,9.45
2023-11-06T05:34:23.741Z,9.80
2023-11-06T05:36:50.874Z,9.45
2023-11-06T05:39:18.063Z,9.24
2023-11-06T05:41:49.541Z,8.90
2023-11-06T05:44:17.120Z,9.44
2023-11-06T05:46:45.015Z,9.46
2023-11-06T05:49:12.275Z,9.81
2023-11-06T05:51:40.064Z,9.82
2023-11-06T05:54:07.714Z,9.79
2023-11-06T05:56:34.797Z,9.77
2023-11-06T05:59:04.558Z,8.72
2023-11-06T06:01:31.855Z,8.92
2023-11-06T06:03:59.292Z,9.02
2023-11-06T06:06:27.029Z,9.32
2023-11-06T06:08:54.360Z,8.55
2023-11-06T06:11:21.613Z,9.69
2023-11-06T06:13:48.809Z,9.67
2023-11-06T06:16:15.899Z,9.10
2023-11-06T06:18:43.657Z,9.66
2023-11-06T06:21:10.791Z,9.33
2023-11-06T06:23:37.877Z,9.62
2023-11-06T06:26:05.343Z,8.78
2023-11-06T06:28:32.399Z,9.57
2023-11-06T06:30:59.480Z,9.54
2023-11-06T06:33:26.649Z,9.34
2023-11-06T06:35:53.820Z,9.31
2023-11-06T06:38:22.061Z,9.10
2023-11-06T06:40:50.911Z,9.27
2023-11-06T06:43:18.453Z,8.82
2023-11-06T06:45:46.461Z,9.27
2023-11-06T06:48:17.141Z,8.80
2023-11-06T06:50:44.427Z,8.69
2023-11-06T06:53:11.965Z,9.09
2023-11-06T06:55:39.206Z,8.91
2023-11-06T06:58:06.640Z,8.65
2023-11-06T07:00:34.346Z,9.37
2023-11-06T07:03:02.405Z,9.15
2023-11-06T07:05:29.849Z,9.37
2023-11-06T07:07:57.032Z,9.36
2023-11-06T07:10:24.106Z,9.35
2023-11-06T07:12:51.182Z,8.73
2023-11-06T07:15:18.541Z,9.31
2023-11-06T07:17:45.708Z,9.30
2023-11-06T07:20:17.340Z,9.30
2023-11-06T07:22:44.649Z,8.82
2023-11-06T07:25:12.116Z,8.85
2023-11-06T07:27:40.422Z,8.80
2023-11-06T07:30:09.078Z,9.32
2023-11-06T07:32:36.332Z,9.29
2023-11-06T07:35:04.094Z,8.56
2023-11-06T07:37:31.816Z,9.08
2023-11-06T07:39:58.916Z,8.96
2023-11-06T07:42:26.181Z,8.49
2023-11-06T07:44:53.221Z,9.31
2023-11-06T07:47:20.336Z,8.48
2023-11-06T07:49:47.557Z,8.81
2023-11-06T07:52:15.173Z,8.16
2023-11-06T07:54:43.121Z,7.90
2023-11-06T07:57:10.828Z,9.41
2023-11-06T07:59:44.077Z,9.21
2023-11-06T08:02:12.754Z,9.31
2023-11-06T08:04:41.011Z,9.24
2023-11-06T08:07:08.226Z,9.06
2023-11-06T08:09:35.329Z,9.50
2023-11-06T08:12:02.441Z,9.31
2023-11-06T08:14:29.635Z,9.56
2023-11-06T08:16:57.490Z,8.73
2023-11-06T08:19:24.569Z,9.16
2023-11-06T08:21:51.624Z,9.64
2023-11-06T08:24:18.779Z,9.66
2023-11-06T08:26:45.893Z,9.19
2023-11-06T08:29:14.179Z,9.30
2023-11-06T08:31:41.732Z,9.79
2023-11-06T08:34:08.987Z,9.08
2023-11-06T08:36:36.061Z,9.84
2023-11-06T08:39:03.114Z,9.88
2023-11-06T08:41:30.192Z,9.94
2023-11-06T08:43:57.327Z,9.99
2023-11-06T08:46:25.017Z,9.55
2023-11-06T08:48:52.463Z,9.30
2023-11-06T08:51:19.546Z,10.01
2023-11-06T08:53:46.613Z,10.32
2023-11-06T08:56:20.181Z,10.41
2023-11-06T08:58:47.646Z,10.36
2023-11-06T09:01:17.265Z,10.60
2023-11-06T09:03:44.979Z,10.48
2023-11-06T09:06:12.183Z,10.40
2023-11-06T09:08:39.399Z,10.82
2023-11-06T09:11:08.340Z,10.87
2023-11-06T09:13:37.666Z,10.19
2023-11-06T09:16:05.550Z,10.21
2023-11-06T09:18:32.756Z,11.01
2023-11-06T09:20:59.905Z,10.35
2023-11-06T09:23:27.082Z,10.93
2023-11-06T09:25:56.293Z,10.36
2023-11-06T09:28:23.548Z,11.34
2023-11-06T09:30:51.319Z,11.08
2023-11-06T09:33:18.436Z,11.29
2023-11-06T09:35:45.761Z,10.84
2023-11-06T09:38:13.813Z,10.75
2023-11-06T09:40:43.538Z,11.15
2023-11-06T09:43:12.312Z,11.14
2023-11-06T09:45:39.388Z,10.79
2023-11-06T09:48:10.296Z,11.15
2023-11-06T09:50:37.472Z,10.26
2023-11-06T09:53:04.628Z,11.07
2023-11-06T09:55:31.698Z,10.45
2023-11-06T09:57:58.891Z,11.33
2023-11-06T10:00:28.174Z,10.83
2023-11-06T10:02:56.112Z,11.75
2023-11-06T10:05:24.191Z,11.37
2023-11-06T10:07:56.088Z,11.92
2023-11-06T10:10:24.285Z,11.96
2023-11-06T10:13:08.115Z,11.49
2023-11-06T10:15:36.002Z,12.07
2023-11-06T10:18:22.997Z,12.09
2023-11-06T10:20:52.026Z,11.11
2023-11-06T10:23:31.739Z,11.21
2023-11-06T10:26:12.428Z,11.99
2023-11-06T10:28:41.229Z,11.07
2023-11-06T10:31:08.878Z,12.02
2023-11-06T10:33:36.123Z,12.05
2023-11-06T10:36:08.598Z,11.94
2023-11-06T10:38:35.848Z,11.86
2023-11-06T10:41:27.227Z,12.02
2023-11-06T10:44:00.427Z,11.60
2023-11-06T10:46:32.396Z,11.36
2023-11-06T10:49:05.379Z,11.29
2023-11-06T10:51:33.124Z,11.30
2023-11-06T10:54:01.507Z,11.49
2023-11-06T10:56:30.622Z,11.41
2023-11-06T10:59:00.350Z,11.84
2023-11-06T11:01:30.385Z,11.87
2023-11-06T11:03:58.019Z,11.22
2023-11-06T11:06:26.179Z,11.29
2023-11-06T11:08:53.345Z,11.96
2023-11-06T11:11:21.185Z,11.53
2023-11-06T11:13:48.555Z,11.55
2023-11-06T11:16:46.501Z,12.09
2023-11-06T11:19:29.176Z,10.98
2023-11-06T11:22:07.500Z,11.31
2023-11-06T11:24:56.018Z,12.10
2023-11-06T11:27:25.025Z,11.53
2023-11-06T11:29:55.308Z,12.10
2023-11-06T11:32:28.510Z,11.89
2023-11-06T11:34:59.108Z,12.08
2023-11-06T11:37:29.836Z,12.08
2023-11-06T11:39:57.549Z,11.83
2023-11-06T11:42:24.819Z,11.31
2023-11-06T11:44:54.282Z,11.87
2023-11-06T11:47:21.505Z,11.85
2023-11-06T11:49:49.380Z,11.63
2023-11-06T11:52:39.753Z,12.10
2023-11-06T11:55:31.677Z,12.10
2023-11-06T11:58:10.515Z,11.13
2023-11-06T12:00:39.626Z,11.21
2023-11-06T12:03:11.008Z,11.46
2023-11-06T12:05:39.685Z,11.67
2023-11-06T12:08:16.751Z,11.83
2023-11-06T12:10:44.297Z,12.18
2023-11-06T12:13:22.849Z,11.73
2023-11-06T12:15:50.993Z,11.95
2023-11-06T12:18:23.004Z,12.14
2023-11-06T12:20:56.076Z,12.14
2023-11-06T12:23:33.528Z,11.81
2023-11-06T12:26:16.232Z,12.00
2023-11-06T12:28:50.529Z,11.49
2023-11-06T12:31:20.536Z,11.67
2023-11-06T12:33:47.945Z,11.84
2023-11-06T12:36:30.839Z,10.67
2023-11-06T12:39:00.465Z,12.10
2023-11-06T12:41:34.167Z,11.75
2023-11-06T12:44:08.705Z,11.89
2023-11-06T12:49:18.989Z,11.92
2023-11-06T12:51:46.237Z,11.42
2023-11-06T12:54:18.775Z,11.64
2023-11-06T12:56:45.904Z,11.99
2023-11-06T12:59:16.050Z,11.97
2023-11-06T13:01:43.606Z,11.90
2023-11-06T13:04:11.863Z,11.72
2023-11-06T13:06:39.008Z,11.47
2023-11-06T13:09:07.748Z,11.49
2023-11-06T13:11:38.787Z,11.51
2023-11-06T13:14:08.693Z,11.73
2023-11-06T13:16:38.922Z,11.80
2023-11-06T13:19:06.751Z,11.71
2023-11-06T13:21:36.122Z,11.91
2023-11-06T13:24:03.359Z,11.52
2023-11-06T13:26:30.575Z,11.33
2023-11-06T13:28:58.142Z,10.32
2023-11-06T13:31:26.732Z,11.35
2023-11-06T13:33:54.184Z,11.87
2023-11-06T13:36:24.666Z,11.67
2023-11-06T13:38:52.183Z,11.87
2023-11-06T13:41:23.507Z,11.83
2023-11-06T13:43:52.743Z,11.44
2023-11-06T13:46:22.974Z,11.68
2023-11-06T13:48:51.802Z,11.34
2023-11-06T13:51:25.335Z,10.61
2023-11-06T13:53:54.003Z,11.48
2023-11-06T13:56:26.174Z,10.60
2023-11-06T13:58:55.119Z,11.75
2023-11-06T14:01:22.928Z,11.41
2023-11-06T14:03:52.512Z,11.66
2023-11-06T14:06:21.523Z,11.78
2023-11-06T14:08:49.005Z,11.76
2023-11-06T14:11:22.278Z,11.25
2023-11-06T14:13:51.312Z,11.77
2023-11-06T14:16:20.569Z,11.76
2023-11-06T14:18:47.948Z,11.23
2023-11-06T14:21:15.001Z,11.40
2023-11-06T14:23:42.206Z,11.75
2023-11-06T14:26:10.035Z,10.45
2023-11-06T14:28:37.100Z,11.73
2023-11-06T14:31:04.728Z,11.29
2023-11-06T14:33:31.928Z,11.74
2023-11-06T14:35:59.838Z,11.03
2023-11-06T14:38:29.747Z,11.48
2023-11-06T14:40:57.448Z,11.74
2023-11-06T14:43:24.713Z,11.75
2023-11-06T14:45:54.616Z,11.75
2023-11-06T14:48:22.568Z,11.16
2023-11-06T14:50:49.908Z,11.64
2023-11-06T14:53:27.482Z,11.22
2023-11-06T14:56:02.185Z,11.35
2023-11-06T14:58:30.128Z,11.74
2023-11-06T15:00:57.361Z,11.63
2023-11-06T15:03:24.582Z,10.95
2023-11-06T15:05:51.854Z,11.07
2023-11-06T15:08:19.714Z,11.17
2023-11-06T15:10:47.354Z,11.06
2023-11-06T15:13:14.419Z,11.67
2023-11-06T15:15:41.881Z,11.67
2023-11-06T15:18:09.167Z,11.27
2023-11-06T15:20:36.343Z,11.66
2023-11-06T15:23:03.471Z,11.65
2023-11-06T15:25:30.519Z,10.84
2023-11-06T15:28:00.784Z,11.60
2023-11-06T15:30:27.855Z,9.94
2023-11-06T15:32:55.101Z,11.56
2023-11-06T15:35:23.403Z,11.53
2023-11-06T15:37:50.605Z,11.04
2023-11-06T15:40:17.953Z,11.09
2023-11-06T15:42:46.001Z,11.44
2023-11-06T15:45:14.636Z,11.43
2023-11-06T15:47:42.138Z,11.04
2023-11-06T15:50:09.589Z,11.12
2023-11-06T15:52:36.669Z,11.05
2023-11-06T15:55:06.071Z,10.75
2023-11-06T15:57:33.390Z,10.29
2023-11-06T16:00:00.605Z,10.47
2023-11-06T16:02:27.901Z,11.28
2023-11-06T16:04:55.873Z,10.43
2023-11-06T16:07:24.767Z,11.22
2023-11-06T16:09:51.923Z,10.99
2023-11-06T16:12:19.077Z,10.93
2023-11-06T16:14:46.224Z,11.07
2023-11-06T16:17:13.588Z,11.05
2023-11-06T16:19:40.741Z,10.40
2023-11-06T16:22:07.808Z,10.77
2023-11-06T16:24:34.937Z,11.08
2023-11-06T16:27:03.805Z,11.05
2023-11-06T16:29:33.301Z,10.92
2023-11-06T16:32:02.285Z,11.03
2023-11-06T16:34:39.417Z,10.04
2023-11-06T16:37:14.066Z,10.62
2023-11-06T16:39:43.397Z,10.95
2023-11-06T16:42:13.812Z,10.11
2023-11-06T16:44:41.575Z,10.91
2023-11-06T16:47:08.746Z,10.89
2023-11-06T16:49:35.820Z,10.67
2023-11-06T16:52:04.293Z,10.86
2023-11-06T16:54:31.527Z,10.46
2023-11-06T16:56:59.713Z,10.26
2023-11-06T16:59:27.468Z,10.25
2023-11-06T17:01:55.229Z,9.74
2023-11-06T17:04:22.453Z,10.05
2023-11-06T17:06:49.552Z,10.19
2023-11-06T17:09:16.862Z,10.85
2023-11-06T17:11:44.465Z,10.85
2023-11-06T17:14:14.942Z,10.46
2023-11-06T17:16:42.407Z,10.81
2023-11-06T17:19:09.660Z,10.80
2023-11-06T17:21:36.902Z,10.80
2023-11-06T17:24:05.960Z,10.27
2023-11-06T17:26:34.202Z,9.85
2023-11-06T17:29:01.404Z,10.78
2023-11-06T17:31:28.565Z,9.82
2023-11-06T17:33:55.771Z,10.19
2023-11-06T17:36:24.260Z,10.38
2023-11-06T17:38:52.092Z,10.73
2023-11-06T17:41:19.608Z,10.22
2023-11-06T17:43:46.827Z,10.47
2023-11-06T17:46:14.446Z,9.98
2023-11-06T17:48:41.832Z,9.70
2023-11-06T17:51:13.219Z,10.17
2023-11-06T17:53:41.991Z,10.22
2023-11-06T17:56:13.639Z,9.90
2023-11-06T17:58:41.089Z,10.68
2023-11-06T18:01:10.997Z,9.65
2023-11-06T18:03:41.637Z,10.19
2023-11-06T18:06:11.645Z,10.14
2023-11-06T18:08:38.894Z,10.24
2023-11-06T18:11:06.697Z,10.29
2023-11-06T18:13:33.760Z,10.44
2023-11-06T18:16:00.932Z,10.10
2023-11-06T18:18:29.090Z,9.93
2023-11-06T18:20:56.690Z,10.23
2023-11-06T18:23:24.044Z,10.29
2023-11-06T18:25:52.495Z,10.42
2023-11-06T18:28:20.529Z,10.03
2023-11-06T18:30:48.884Z,9.86
2023-11-06T18:33:17.418Z,10.43
2023-11-06T18:35:44.849Z,10.62
2023-11-06T18:38:12.128Z,10.62
2023-11-06T18:40:39.281Z,10.00
2023-11-06T18:43:06.397Z,10.27
2023-11-06T18:45:33.443Z,9.97
2023-11-06T18:48:00.734Z,10.61
2023-11-06T18:50:27.894Z,10.46
2023-11-06T18:52:56.723Z,9.85
2023-11-06T18:55:23.870Z,9.73
2023-11-06T18:57:51.307Z,10.01
2023-11-06T19:00:21.620Z,10.23
2023-11-06T19:02:50.249Z,10.21
2023-11-06T19:05:18.537Z,10.54
2023-11-06T19:07:45.836Z,10.38
2023-11-06T19:10:13.519Z,9.85
2023-11-06T19:12:41.866Z,10.08
2023-11-06T19:15:12.785Z,10.00
2023-11-06T19:17:41.881Z,9.62
2023-11-06T19:20:09.674Z,10.36
2023-11-06T19:22:37.028Z,9.76
2023-11-06T19:25:05.088Z,10.52
2023-11-06T19:27:32.727Z,10.37
2023-11-06T19:30:00.394Z,9.72
2023-11-06T19:32:27.676Z,10.49
2023-11-06T19:34:55.034Z,9.94
2023-11-06T19:37:22.157Z,10.20
2023-11-06T19:39:49.400Z,10.12
2023-11-06T19:42:18.509Z,10.37
2023-11-06T19:44:46.546Z,10.37
2023-11-06T19:47:13.727Z,9.74
2023-11-06T19:49:40.805Z,9.52
2023-11-06T19:52:07.868Z,10.34
2023-11-06T19:54:35.097Z,9.14
2023-11-06T19:57:02.221Z,9.50
2023-11-06T19:59:41.777Z,10.13
2023-11-06T20:02:16.359Z,10.31
2023-11-06T20:04:43.574Z,10.30
2023-11-06T20:07:10.832Z,9.85
2023-11-06T20:09:40.997Z,9.80
2023-11-06T20:12:08.464Z,10.31
2023-11-06T20:14:35.545Z,10.32
2023-11-06T20:17:04.549Z,9.80
2023-11-06T20:19:31.857Z,9.75
2023-11-06T20:21:58.937Z,9.83
2023-11-06T20:24:26.120Z,10.15
2023-11-06T20:26:53.197Z,10.28
2023-11-06T20:29:20.400Z,10.10
2023-11-06T20:31:47.518Z,9.46
2023-11-06T20:34:14.708Z,9.62
2023-11-06T20:36:43.713Z,10.08
2023-11-06T20:39:10.796Z,10.21
2023-11-06T20:41:47.498Z,8.83
2023-11-06T20:44:15.280Z,9.94
2023-11-06T20:46:46.943Z,10.13
2023-11-06T20:49:15.417Z,10.09
2023-11-06T20:51:43.548Z,10.08
2023-11-06T20:54:10.783Z,9.40
2023-11-06T20:56:40.018Z,9.43
2023-11-06T20:59:07.730Z,9.66
2023-11-06T21:01:36.140Z,9.92
2023-11-06T21:04:03.893Z,9.96
2023-11-06T21:06:31.462Z,9.24
2023-11-06T21:08:59.676Z,9.56
2023-11-06T21:11:27.353Z,9.50
2023-11-06T21:13:56.625Z,9.18
2023-11-06T21:16:24.031Z,9.38
2023-11-06T21:18:51.412Z,9.83
2023-11-06T21:21:19.830Z,9.56
2023-11-06T21:23:47.187Z,9.82
2023-11-06T21:26:15.411Z,9.83
2023-11-06T21:28:43.217Z,8.60
2023-11-06T21:31:10.646Z,9.85
2023-11-06T21:33:40.513Z,9.86
2023-11-06T21:36:08.663Z,9.66
2023-11-06T21:38:35.976Z,9.34
2023-11-06T21:41:03.277Z,9.51
2023-11-06T21:43:30.488Z,9.29
2023-11-06T21:45:59.683Z,8.82
2023-11-06T21:48:27.051Z,9.56
2023-11-06T21:50:54.611Z,9.78
2023-11-06T21:53:21.696Z,9.19
2023-11-06T21:55:49.713Z,9.12
2023-11-06T21:58:26.464Z,8.96
2023-11-06T22:00:57.206Z,9.38
2023-11-06T22:03:24.465Z,9.48
2023-11-06T22:05:51.785Z,9.34
2023-11-06T22:08:19.511Z,9.73
2023-11-06T22:10:46.570Z,9.51
2023-11-06T22:13:13.977Z,9.71
2023-11-06T22:15:41.074Z,9.57
2023-11-06T22:18:09.294Z,8.56
2023-11-06T22:20:37.012Z,9.69
2023-11-06T22:23:05.366Z,9.68
2023-11-06T22:25:32.600Z,9.45
2023-11-06T22:27:59.735Z,9.68
2023-11-06T22:30:27.458Z,9.63
2023-11-06T22:32:54.700Z,9.54
2023-11-06T22:35:21.944Z,9.48
2023-11-06T22:37:50.114Z,9.55
2023-11-06T22:40:17.539Z,9.53
2023-11-06T22:42:44.663Z,9.39
2023-11-06T22:45:12.013Z,9.63
2023-11-06T22:47:39.589Z,9.59
2023-11-06T22:50:08.685Z,9.40
2023-11-06T22:52:36.008Z,9.78
2023-11-06T22:55:04.119Z,8.88
2023-11-06T22:57:31.190Z,9.38
2023-11-06T22:59:58.460Z,9.22
2023-11-06T23:02:25.662Z,9.81
2023-11-06T23:04:53.390Z,9.38
2023-11-06T23:07:20.543Z,9.19
2023-11-06T23:09:47.595Z,9.56
2023-11-06T23:12:14.651Z,8.48
2023-11-06T23:14:42.140Z,9.81
2023-11-06T23:17:09.203Z,9.35
2023-11-06T23:19:36.303Z,9.83
2023-11-06T23:22:03.392Z,9.47
2023-11-06T23:24:30.600Z,9.44
2023-11-06T23:26:57.789Z,9.42
2023-11-06T23:29:24.934Z,9.63
2023-11-06T23:31:51.979Z,9.35
2023-11-06T23:34:19.741Z,9.85
2023-11-06T23:36:47.783Z,9.28
2023-11-06T23:39:16.038Z,9.74
2023-11-06T23:41:45.651Z,9.76
2023-11-06T23:44:13.708Z,9.63
2023-11-06T23:46:41.265Z,9.05
2023-11-06T23:49:10.224Z,9.78
2023-11-06T23:51:37.986Z,9.73
2023-11-06T23:54:06.358Z,9.34
2023-11-06T23:56:33.599Z,9.28
2023-11-06T23:59:01.025Z,9.65
